Time;durP1;ratioP1;P1;durP2;ratioP2;P2;SDS_P1;SDS_P2;PMS_P1;PMS_P2;Temp;Humidity;BMP_temperature;BMP_pressure;BME280_temperature;BME280_humidity;BME280_pressure;Samples;Min_cycle;Max_cycle;Signal;HPM_P1;HPM_P2
2022/07/21 00:00:13;;;;;;;4.70;3.50;;;;;;;18.73;59.47;97059.48;108890;1264;22545;-80
2022/07/21 00:03:19;;;;;;;5.00;4.40;;;;;;;18.78;59.41;97058.09;108851;1263;22540;-80
2022/07/21 00:05:59;;;;;;;4.70;3.60;;;;;;;18.84;59.51;97055.83;106950;1264;2378574;-80
2022/07/21 00:08:34;;;;;;;4.40;3.30;;;;;;;18.93;59.36;97054.72;108771;1264;22563;-80
2022/07/21 00:11:11;;;;;;;4.90;3.80;;;;;;;18.94;59.12;97053.39;108743;1261;22562;-80
2022/07/21 00:13:45;;;;;;;6.40;3.50;;;;;;;18.87;59.02;97057.23;108882;1262;22602;-80
2022/07/21 00:16:22;;;;;;;6.30;4.00;;;;;;;18.77;59.13;97057.84;108490;1264;93391;-81
2022/07/21 00:19:01;;;;;;;6.10;3.30;;;;;;;18.73;59.17;97058.02;108857;1262;22539;-80
2022/07/21 00:21:43;;;;;;;3.60;3.20;;;;;;;18.74;59.34;97058.29;108882;1264;22532;-80
2022/07/21 00:24:23;;;;;;;4.00;3.10;;;;;;;18.73;59.37;97054.73;108848;1264;22548;-80
2022/07/21 00:26:57;;;;;;;5.10;3.10;;;;;;;18.57;59.66;97054.96;108535;1264;114574;-81
2022/07/21 00:29:31;;;;;;;4.80;3.60;;;;;;;18.45;60.06;97059.08;108866;1263;25333;-81
2022/07/21 00:32:04;;;;;;;4.50;3.40;;;;;;;18.39;60.29;97058.61;108838;1264;25306;-81
2022/07/21 00:34:41;;;;;;;5.30;3.00;;;;;;;18.40;60.23;97060.72;108847;1264;22831;-81
2022/07/21 00:37:16;;;;;;;4.10;3.20;;;;;;;18.46;60.33;97061.52;108669;1264;87701;-81
2022/07/21 00:39:47;;;;;;;5.00;3.20;;;;;;;18.50;60.01;97061.16;108879;1264;22571;-81
2022/07/21 00:42:32;;;;;;;4.20;3.10;;;;;;;18.55;59.90;97063.45;108856;1264;23026;-81
2022/07/21 00:45:06;;;;;;;4.30;3.30;;;;;;;18.61;59.82;97066.09;108820;1263;22535;-81
2022/07/21 00:47:40;;;;;;;5.40;3.30;;;;;;;18.60;59.72;97066.38;108873;1264;22516;-81
2022/07/21 00:50:24;;;;;;;4.10;3.70;;;;;;;18.59;59.73;97066.85;108865;1264;22558;-81
2022/07/21 00:52:58;;;;;;;4.50;3.40;;;;;;;18.59;59.66;97070.13;108895;1264;22531;-80
2022/07/21 00:55:36;;;;;;;7.30;3.70;;;;;;;18.48;59.56;97068.52;108687;1264;123959;-80
2022/07/21 00:58:11;;;;;;;4.50;3.50;;;;;;;18.31;59.74;97063.70;108840;1264;22547;-80
2022/07/21 01:00:45;;;;;;;4.80;3.50;;;;;;;18.24;59.93;97063.70;108843;1264;22579;-80
2022/07/21 01:03:19;;;;;;;4.00;3.40;;;;;;;18.27;60.03;97063.00;108457;1267;22542;-80
2022/07/21 01:05:58;;;;;;;5.20;3.70;;;;;;;18.26;60.04;97062.88;108188;1267;189633;-82
2022/07/21 01:08:36;;;;;;;3.60;3.10;;;;;;;18.19;60.20;97066.25;108382;1267;22524;-82
2022/07/21 01:11:10;;;;;;;4.40;3.20;;;;;;;18.14;60.36;97069.02;108502;1267;22635;-82
2022/07/21 01:13:46;;;;;;;5.00;3.60;;;;;;;18.04;60.71;97065.98;108532;1267;22609;-81
2022/07/21 01:16:19;;;;;;;3.70;3.30;;;;;;;18.01;61.06;97069.61;108365;1266;71725;-81
2022/07/21 01:19:05;;;;;;;4.20;3.40;;;;;;;18.01;61.21;97069.61;108461;1267;22561;-81
2022/07/21 01:21:47;;;;;;;5.30;3.50;;;;;;;18.07;61.26;97067.63;108658;1264;22556;-81
2022/07/21 01:24:22;;;;;;;4.70;3.50;;;;;;;18.15;61.10;97066.55;108861;1264;22590;-81
2022/07/21 01:26:57;;;;;;;4.70;3.60;;;;;;;18.19;60.94;97071.52;108655;1263;88105;-81
2022/07/21 01:29:35;;;;;;;4.80;3.50;;;;;;;18.21;60.97;97066.75;108828;1261;22545;-81
2022/07/21 01:32:12;;;;;;;6.60;3.70;;;;;;;18.22;61.03;97070.27;108888;1264;22572;-81
2022/07/21 01:34:52;;;;;;;5.80;3.70;;;;;;;18.11;61.19;97068.66;108781;1263;22520;-82
2022/07/21 01:37:33;;;;;;;5.60;3.70;;;;;;;18.03;61.44;97070.05;106901;1262;2322537;-81
2022/07/21 01:43:04;;;;;;;7.80;3.60;;;;;;;18.03;61.55;97069.20;108853;1264;22701;-81
2022/07/21 01:45:39;;;;;;;7.60;3.90;;;;;;;18.06;61.54;97070.34;108688;1264;103198;-80
2022/07/21 01:48:16;;;;;;;4.80;4.20;;;;;;;18.10;61.61;97069.02;108854;1264;22512;-81
2022/07/21 01:50:50;;;;;;;5.20;3.80;;;;;;;18.11;61.51;97070.34;108602;1264;23969;-81
2022/07/21 01:53:23;;;;;;;5.10;3.40;;;;;;;18.09;61.40;97071.95;108865;1263;22661;-81
2022/07/21 01:55:59;;;;;;;3.90;3.30;;;;;;;18.00;61.54;97069.44;108658;1264;104651;-81
2022/07/21 01:58:32;;;;;;;6.70;3.60;;;;;;;18.01;61.81;97070.73;108876;1264;24256;-81
2022/07/21 02:01:15;;;;;;;4.70;3.60;;;;;;;18.06;61.75;97073.42;108857;1262;23544;-81
2022/07/21 02:03:51;;;;;;;4.30;3.60;;;;;;;18.06;61.61;97071.20;108877;1264;22577;-81
2022/07/21 02:06:28;;;;;;;4.10;3.20;;;;;;;18.08;61.59;97067.44;108706;1264;93683;-81
2022/07/21 02:09:07;;;;;;;4.20;3.50;;;;;;;18.12;61.54;97068.05;108834;1264;22539;-81
2022/07/21 02:11:41;;;;;;;4.70;3.40;;;;;;;18.14;61.43;97064.17;108885;1264;22876;-81
2022/07/21 02:14:25;;;;;;;5.80;3.40;;;;;;;18.10;61.51;97063.70;108850;1264;22519;-81
2022/07/21 02:17:11;;;;;;;4.40;3.10;;;;;;;17.97;61.65;97062.34;107310;1264;1912711;-81
2022/07/21 02:19:51;;;;;;;5.40;4.00;;;;;;;17.81;61.92;97065.28;108863;1263;22507;-81
2022/07/21 02:22:22;;;;;;;4.60;3.50;;;;;;;17.71;62.16;97060.53;108859;1264;24394;-81
2022/07/21 02:24:54;;;;;;;5.00;3.50;;;;;;;17.58;62.59;97058.08;108856;1264;22699;-81
2022/07/21 02:27:26;;;;;;;4.10;3.50;;;;;;;17.46;63.22;97058.05;108577;1263;116647;-81
2022/07/21 02:30:00;;;;;;;4.20;3.80;;;;;;;17.54;63.46;97060.27;108831;1264;25359;-81
2022/07/21 02:32:33;;;;;;;4.90;3.50;;;;;;;17.76;63.04;97060.07;108877;1264;24220;-81
2022/07/21 02:35:16;;;;;;;6.20;3.60;;;;;;;17.90;62.72;97063.85;108558;1264;142002;-81
2022/07/21 02:37:54;;;;;;;6.00;3.60;;;;;;;17.99;62.57;97059.30;108694;1263;22588;-81
2022/07/21 02:40:32;;;;;;;4.60;3.70;;;;;;;17.93;62.52;97056.18;108776;1263;22523;-81
2022/07/21 02:43:22;;;;;;;5.60;3.80;;;;;;;17.71;62.76;97050.70;108679;1264;22519;-81
2022/07/21 02:46:01;;;;;;;5.20;4.10;;;;;;;17.77;62.94;97046.14;108573;1264;101083;-81
2022/07/21 02:48:38;;;;;;;4.70;3.90;;;;;;;17.89;62.80;97045.58;108789;1264;22525;-81
2022/07/21 02:51:13;;;;;;;4.80;3.90;;;;;;;18.02;62.62;97037.89;108815;1264;22590;-81
2022/07/21 02:53:54;;;;;;;5.60;3.80;;;;;;;18.13;62.38;97036.68;108794;1264;22516;-81
2022/07/21 02:56:35;;;;;;;5.10;3.80;;;;;;;18.28;62.14;97038.79;108561;1264;107973;-81
2022/07/21 02:59:09;;;;;;;5.20;4.00;;;;;;;18.33;61.86;97038.64;108735;1264;22540;-81
2022/07/21 03:01:46;;;;;;;6.80;4.40;;;;;;;18.42;61.71;97035.58;108761;1264;25455;-81
2022/07/21 03:04:20;;;;;;;6.50;4.10;;;;;;;18.52;61.51;97033.64;108748;1264;23404;-81
2022/07/21 03:06:51;;;;;;;6.40;4.50;;;;;;;18.58;61.27;97032.59;107233;1264;1790477;-81
2022/07/21 03:09:23;;;;;;;5.00;4.00;;;;;;;18.59;61.15;97035.95;108705;1264;22686;-80
2022/07/21 03:11:57;;;;;;;6.20;4.50;;;;;;;18.57;61.05;97038.73;108794;1264;22556;-81
2022/07/21 03:14:38;;;;;;;4.80;3.90;;;;;;;18.57;61.07;97040.73;108816;1264;23483;-81
2022/07/21 03:17:15;;;;;;;6.80;4.20;;;;;;;18.58;60.97;97038.20;104430;1264;5247311;-81
2022/07/21 03:19:58;;;;;;;5.10;4.20;;;;;;;18.62;60.85;97040.74;108810;1263;22562;-81
2022/07/21 03:22:30;;;;;;;8.10;4.40;;;;;;;18.65;60.73;97040.60;108696;1264;22542;-76
2022/07/21 03:25:04;;;;;;;6.00;4.20;;;;;;;18.64;60.85;97048.11;108536;1264;22500;-76
2022/07/21 03:27:37;;;;;;;5.30;4.10;;;;;;;18.41;61.15;97044.97;108584;1264;22575;-77
2022/07/21 03:30:12;;;;;;;7.30;4.00;;;;;;;18.27;61.55;97039.66;108609;1264;22550;-76
2022/07/21 03:32:45;;;;;;;5.30;3.70;;;;;;;18.27;61.82;97039.35;108575;1264;22536;-76
2022/07/21 03:35:16;;;;;;;5.50;3.80;;;;;;;18.31;61.88;97037.83;108514;1264;38034;-77
2022/07/21 03:37:49;;;;;;;5.40;4.30;;;;;;;18.31;61.95;97037.66;108619;1264;22527;-76
2022/07/21 03:40:24;;;;;;;6.30;4.20;;;;;;;18.21;62.03;97039.11;108692;1264;24382;-76
2022/07/21 03:42:57;;;;;;;8.00;4.20;;;;;;;18.16;62.23;97038.99;108623;1264;22567;-77
2022/07/21 03:45:30;;;;;;;5.50;4.20;;;;;;;18.28;62.21;97043.65;108572;1264;39750;-76
2022/07/21 03:48:02;;;;;;;7.00;4.40;;;;;;;18.41;62.21;97037.35;108598;1264;22699;-76
2022/07/21 03:50:34;;;;;;;5.70;4.10;;;;;;;18.48;62.10;97039.98;108624;1264;23557;-76
2022/07/21 03:53:06;;;;;;;6.60;4.30;;;;;;;18.50;62.34;97043.41;108618;1264;22563;-76
2022/07/21 03:55:37;;;;;;;6.20;4.80;;;;;;;18.44;62.48;97040.58;108522;1264;39457;-76
2022/07/21 03:58:09;;;;;;;5.60;3.90;;;;;;;18.37;62.72;97038.52;108682;1264;22517;-76
2022/07/21 04:00:43;;;;;;;4.20;3.80;;;;;;;18.45;63.02;97030.13;108629;1264;23265;-76
2022/07/21 04:03:14;;;;;;;8.40;4.60;;;;;;;18.59;63.08;97029.31;108611;1264;22549;-76
2022/07/21 04:05:46;;;;;;;8.20;5.50;;;;;;;18.74;63.11;97027.15;108493;1264;70092;-76
2022/07/21 04:08:17;;;;;;;16.30;12.10;;;;;;;18.82;63.05;97024.66;108614;1262;22692;-76
2022/07/21 04:10:48;;;;;;;19.50;15.70;;;;;;;18.92;62.95;97024.73;108626;1264;22561;-77
2022/07/21 04:13:20;;;;;;;15.20;11.60;;;;;;;19.06;63.28;97021.92;108571;1264;25707;-76
2022/07/21 04:15:51;;;;;;;5.60;4.80;;;;;;;19.19;63.58;97025.13;108551;1264;30742;-76
2022/07/21 04:18:22;;;;;;;7.10;4.30;;;;;;;19.13;63.81;97028.11;108628;1264;22558;-77
2022/07/21 04:20:56;;;;;;;5.90;4.50;;;;;;;19.13;63.98;97026.52;108662;1264;22686;-77
2022/07/21 04:23:31;;;;;;;6.00;4.10;;;;;;;19.29;64.42;97023.22;108646;1264;22544;-77
2022/07/21 04:26:03;;;;;;;5.70;4.00;;;;;;;19.48;64.35;97025.82;108517;1264;61316;-77
2022/07/21 04:28:34;;;;;;;7.40;4.00;;;;;;;19.67;63.98;97029.16;108670;1264;22537;-77
2022/07/21 04:31:08;;;;;;;5.10;3.80;;;;;;;19.78;63.51;97035.98;108588;1264;22530;-77
2022/07/21 04:33:39;;;;;;;5.80;4.50;;;;;;;19.89;63.01;97033.95;108626;1264;22538;-77
2022/07/21 04:36:11;;;;;;;6.40;3.90;;;;;;;20.01;63.19;97036.23;108569;1264;35505;-77
2022/07/21 04:38:43;;;;;;;6.50;4.60;;;;;;;20.12;62.89;97035.80;108689;1264;22536;-77
2022/07/21 04:41:14;;;;;;;6.30;4.20;;;;;;;20.26;62.50;97030.27;108432;1264;25247;-77
2022/07/21 04:43:45;;;;;;;6.00;4.40;;;;;;;20.39;61.66;97028.01;108652;1264;23926;-77
2022/07/21 04:46:16;;;;;;;5.20;4.50;;;;;;;20.54;61.29;97028.67;108593;1264;55716;-77
2022/07/21 04:48:48;;;;;;;5.20;4.20;;;;;;;20.67;60.99;97028.89;108707;1264;22541;-77
2022/07/21 04:51:19;;;;;;;6.50;4.60;;;;;;;20.82;60.69;97029.34;108685;1262;23021;-77
2022/07/21 04:53:50;;;;;;;4.80;4.30;;;;;;;20.95;60.09;97026.77;108706;1264;22544;-77
2022/07/21 04:56:22;;;;;;;6.80;4.50;;;;;;;21.10;59.45;97026.48;108616;1264;38780;-77
2022/07/21 04:58:53;;;;;;;6.50;4.60;;;;;;;21.19;58.99;97025.41;108708;1264;22646;-77
2022/07/21 05:01:24;;;;;;;8.40;4.70;;;;;;;21.36;58.43;97025.73;108502;1264;22548;-77
2022/07/21 05:03:56;;;;;;;6.80;5.00;;;;;;;21.58;58.07;97025.02;108687;1264;22692;-77
2022/07/21 05:06:28;;;;;;;7.30;4.70;;;;;;;21.84;57.43;97022.34;108624;1264;27906;-77
2022/07/21 05:09:00;;;;;;;6.80;4.60;;;;;;;22.17;56.88;97022.85;108715;1264;24287;-77
2022/07/21 05:11:31;;;;;;;6.90;4.60;;;;;;;23.37;56.33;97023.70;108707;1264;22529;-77
2022/07/21 05:14:03;;;;;;;5.60;4.50;;;;;;;25.48;54.14;97018.30;108708;1264;22519;-77
2022/07/21 05:16:34;;;;;;;6.20;4.60;;;;;;;27.55;51.22;97020.02;108367;1264;153640;-78
2022/07/21 05:19:06;;;;;;;4.90;3.70;;;;;;;29.20;47.97;97017.33;108720;1264;22559;-78
2022/07/21 05:21:38;;;;;;;4.10;3.70;;;;;;;30.35;43.96;97018.02;108725;1264;22536;-78
2022/07/21 05:24:10;;;;;;;5.50;3.90;;;;;;;31.05;41.74;97019.28;108736;1264;22551;-78
2022/07/21 05:26:41;;;;;;;5.50;3.60;;;;;;;31.43;40.16;97019.93;108605;1264;28952;-78
2022/07/21 05:29:13;;;;;;;4.60;3.70;;;;;;;32.13;39.40;97024.96;108708;1264;22556;-78
2022/07/21 05:31:44;;;;;;;3.80;3.30;;;;;;;33.14;38.39;97022.12;108692;1264;22523;-78
2022/07/21 05:34:16;;;;;;;4.00;3.60;;;;;;;34.34;36.81;97023.15;108656;1264;22520;-78
2022/07/21 05:36:47;;;;;;;5.00;3.50;;;;;;;35.12;35.09;97021.77;108646;1264;30406;-78
2022/07/21 05:39:19;;;;;;;4.20;3.50;;;;;;;35.56;33.73;97021.09;108605;1264;22624;-78
2022/07/21 05:41:51;;;;;;;4.20;3.30;;;;;;;36.10;32.75;97022.77;108601;1264;25253;-78
2022/07/21 05:44:22;;;;;;;4.10;3.50;;;;;;;36.60;32.09;97028.27;108593;1264;22666;-78
2022/07/21 05:46:53;;;;;;;4.30;3.70;;;;;;;37.74;31.39;97033.45;108606;1263;32709;-78
2022/07/21 05:49:25;;;;;;;7.70;4.20;;;;;;;38.49;29.55;97035.67;108685;1264;22646;-78
2022/07/21 05:51:56;;;;;;;4.80;4.10;;;;;;;38.60;29.28;97035.06;108614;1264;22538;-79
2022/07/21 05:54:27;;;;;;;5.10;4.00;;;;;;;39.30;28.78;97042.45;108637;1264;24220;-78
2022/07/21 05:56:59;;;;;;;5.30;4.10;;;;;;;39.04;27.38;97045.88;108603;1264;29339;-79
2022/07/21 05:59:30;;;;;;;10.50;4.50;;;;;;;38.66;27.19;97048.82;108519;1264;22670;-79
2022/07/21 06:02:05;;;;;;;6.60;4.10;;;;;;;38.11;27.19;97053.98;108556;1264;22517;-78
2022/07/21 06:04:38;;;;;;;8.70;3.90;;;;;;;38.42;27.68;97053.14;108630;1264;22519;-79
2022/07/21 06:07:09;;;;;;;6.00;4.00;;;;;;;39.39;27.68;97055.56;108417;1264;30986;-79
2022/07/21 06:09:40;;;;;;;5.00;3.70;;;;;;;40.34;26.79;97057.33;108664;1264;22699;-79
2022/07/21 06:12:12;;;;;;;4.80;4.10;;;;;;;40.78;26.06;97057.35;108659;1264;23070;-78
2022/07/21 06:14:43;;;;;;;5.90;3.90;;;;;;;40.95;25.75;97056.73;108614;1264;22555;-79
2022/07/21 06:17:15;;;;;;;4.00;3.60;;;;;;;41.64;25.44;97062.42;108512;1264;67331;-79
2022/07/21 06:19:46;;;;;;;4.40;3.60;;;;;;;42.06;24.51;97053.61;108595;1264;24242;-79
2022/07/21 06:22:17;;;;;;;6.50;4.00;;;;;;;42.22;24.40;97058.14;108543;1264;22657;-79
2022/07/21 06:24:49;;;;;;;6.00;3.80;;;;;;;42.99;23.97;97056.12;108614;1264;22518;-79
2022/07/21 06:27:21;;;;;;;7.50;4.10;;;;;;;43.63;23.54;97055.02;108537;1264;33887;-79
2022/07/21 06:29:56;;;;;;;6.00;3.80;;;;;;;44.33;22.67;97051.23;108709;1264;22569;-79
2022/07/21 06:32:28;;;;;;;6.90;3.70;;;;;;;45.09;22.21;97051.64;108731;1264;22535;-80
2022/07/21 06:35:01;;;;;;;4.90;3.50;;;;;;;45.92;21.59;97049.95;108726;1264;22566;-76
2022/07/21 06:37:33;;;;;;;4.50;3.30;;;;;;;46.00;20.89;97055.58;108662;1263;31371;-77
2022/07/21 06:40:07;;;;;;;4.30;3.80;;;;;;;46.18;20.69;97057.80;108737;1264;24446;-76
2022/07/21 06:42:42;;;;;;;4.80;3.90;;;;;;;45.89;20.28;97057.48;108614;1264;25131;-78
2022/07/21 06:45:15;;;;;;;8.30;3.40;;;;;;;45.62;20.01;97053.69;108511;1264;194330;-76
2022/07/21 06:47:47;;;;;;;3.70;3.30;;;;;;;45.10;20.33;97052.20;108684;1264;22615;-77
2022/07/21 06:50:26;;;;;;;6.60;3.60;;;;;;;45.13;20.32;97053.90;108688;1264;22608;-85
2022/07/21 06:53:11;;;;;;;;;;;;;;;;;;;;;
2022/07/21 06:55:51;;;;;;;8.80;3.40;;;;;;;47.03;20.08;97059.23;108574;1264;121771;-84
2022/07/21 06:58:35;;;;;;;8.00;3.70;;;;;;;48.02;19.42;97053.50;108833;1264;22668;-85
2022/07/21 07:01:19;;;;;;;;;;;;;;;;;;;;;
2022/07/21 07:03:55;;;;;;;6.80;3.60;;;;;;;49.25;18.30;97053.50;108881;1264;22525;-82
2022/07/21 07:06:26;;;;;;;6.10;3.20;;;;;;;49.83;17.68;97055.48;104472;1264;5445111;-85
2022/07/21 07:08:58;;;;;;;7.00;3.80;;;;;;;50.25;17.11;97058.45;108844;1264;24524;-85
2022/07/21 07:11:29;;;;;;;4.50;3.40;;;;;;;50.63;16.90;97061.02;108837;1264;22568;-83
2022/07/21 07:14:04;;;;;;;5.90;3.80;;;;;;;50.05;16.48;97058.92;108843;1264;24853;-83
2022/07/21 07:17:02;;;;;;;5.90;3.20;;;;;;;49.82;16.64;97058.71;108633;1263;129160;-83
2022/07/21 07:19:35;;;;;;;3.60;3.10;;;;;;;50.56;16.41;97061.38;108835;1264;22523;-83
2022/07/21 07:22:06;;;;;;;4.80;2.80;;;;;;;50.90;15.62;97067.42;108838;1264;22678;-83
2022/07/21 07:24:38;;;;;;;3.80;2.90;;;;;;;51.04;15.70;97065.37;108823;1263;22511;-83
2022/07/21 07:27:11;;;;;;;4.40;3.10;;;;;;;50.21;15.32;97062.02;108705;1264;81464;-82
2022/07/21 07:29:46;;;;;;;4.30;3.40;;;;;;;49.36;16.42;97065.75;108892;1264;23859;-82
2022/07/21 07:32:18;;;;;;;3.80;3.40;;;;;;;48.71;17.16;97067.09;108933;1264;22599;-83
2022/07/21 07:34:50;;;;;;;3.70;3.40;;;;;;;49.24;17.19;97071.17;108884;1264;22761;-83
2022/07/21 07:37:21;;;;;;;4.50;3.40;;;;;;;49.19;16.67;97071.08;107359;1264;1816052;-82
2022/07/21 07:39:53;;;;;;;5.90;3.70;;;;;;;49.42;16.36;97070.30;108827;1264;22524;-82
2022/07/21 07:42:24;;;;;;;4.90;3.40;;;;;;;49.16;16.74;97067.23;108857;1264;22563;-82
2022/07/21 07:44:58;;;;;;;3.80;3.50;;;;;;;49.60;16.01;97072.05;108852;1264;22523;-83
2022/07/21 07:47:29;;;;;;;4.20;3.00;;;;;;;49.26;16.05;97073.73;108614;1264;108004;-78
2022/07/21 07:50:01;;;;;;;3.70;3.40;;;;;;;49.31;15.78;97076.80;108575;1264;22594;-78
2022/07/21 07:52:32;;;;;;;3.70;3.40;;;;;;;48.17;15.37;97075.13;108493;1264;25224;-78
2022/07/21 07:55:10;;;;;;;4.10;3.70;;;;;;;47.49;16.04;97074.80;108366;1264;22615;-78
2022/07/21 07:57:40;;;;;;;;;;;;;;;47.08;16.42;97076.39;108611;1264;22505;-78
2022/07/21 08:00:18;;;;;;;3.00;2.80;;;;;;;46.85;16.11;97075.83;108499;1264;22782;-78
2022/07/21 08:03:01;;;;;;;4.50;3.40;;;;;;;46.70;16.36;97080.67;108646;1264;22516;-78
2022/07/21 08:05:32;;;;;;;2.90;2.70;;;;;;;47.42;16.99;97083.58;108568;1263;28531;-78
2022/07/21 08:08:04;;;;;;;3.80;3.10;;;;;;;48.64;16.38;97083.15;108616;1264;24219;-78
2022/07/21 08:10:35;;;;;;;5.10;3.10;;;;;;;48.18;15.81;97086.83;108643;1264;22640;-78
2022/07/21 08:13:09;;;;;;;5.00;3.20;;;;;;;47.66;16.33;97089.13;108588;1264;22559;-78
2022/07/21 08:15:44;;;;;;;3.30;3.00;;;;;;;48.28;16.74;97089.34;108554;1264;33092;-78
2022/07/21 08:18:19;;;;;;;3.70;3.40;;;;;;;49.65;16.05;97090.47;108644;1264;22690;-78
2022/07/21 08:20:51;;;;;;;5.20;3.80;;;;;;;50.83;14.94;97094.48;108582;1265;22535;-78
2022/07/21 08:23:22;;;;;;;4.20;3.80;;;;;;;50.65;14.43;97095.02;108466;1265;22669;-78
2022/07/21 08:25:54;;;;;;;4.20;3.90;;;;;;;50.42;14.65;97094.08;108524;1264;63271;-78
2022/07/21 08:28:27;;;;;;;3.70;3.50;;;;;;;50.38;14.49;97094.18;108624;1264;22529;-78
2022/07/21 08:30:58;;;;;;;4.00;3.70;;;;;;;50.61;14.72;97097.39;108646;1264;22541;-79
2022/07/21 08:33:30;;;;;;;4.90;4.00;;;;;;;51.36;14.46;97100.45;108598;1264;22918;-79
2022/07/21 08:36:02;;;;;;;4.60;4.00;;;;;;;51.88;13.53;97102.98;108480;1264;37262;-79
2022/07/21 08:38:33;;;;;;;4.50;4.20;;;;;;;49.51;12.63;97102.84;108583;1264;22544;-78
2022/07/21 08:41:07;;;;;;;3.90;3.60;;;;;;;47.50;15.08;97100.17;108632;1264;22530;-78
2022/07/21 08:43:39;;;;;;;4.80;4.30;;;;;;;46.20;15.54;97098.21;108624;1264;22631;-78
2022/07/21 08:46:11;;;;;;;4.10;3.70;;;;;;;45.18;16.13;97094.75;108364;1264;190563;-78
2022/07/21 08:48:43;;;;;;;4.00;3.70;;;;;;;45.44;16.48;97094.11;108633;1264;22539;-78
2022/07/21 08:51:18;;;;;;;3.80;3.50;;;;;;;45.49;17.61;97095.25;108607;1265;24201;-78
2022/07/21 08:53:50;;;;;;;4.00;3.70;;;;;;;47.25;17.45;97095.48;108651;1264;22764;-78
2022/07/21 08:56:23;;;;;;;4.10;3.50;;;;;;;48.24;16.17;97093.48;108490;1265;58491;-78
2022/07/21 08:58:55;;;;;;;4.00;3.40;;;;;;;48.42;15.47;97094.34;108598;1264;22670;-78
2022/07/21 09:01:26;;;;;;;3.20;2.90;;;;;;;47.62;16.53;97096.52;108655;1264;22609;-78
2022/07/21 09:04:25;;;;;;;3.40;3.10;;;;;;;47.03;15.71;97093.95;108465;1263;24233;-85
2022/07/21 09:07:00;;;;;;;3.90;3.30;;;;;;;44.84;16.60;97089.20;108629;1264;92030;-85
2022/07/21 09:09:33;;;;;;;3.60;3.00;;;;;;;43.12;17.88;97090.45;108681;1265;22665;-85
2022/07/21 09:12:07;;;;;;;4.20;3.20;;;;;;;41.79;19.30;97087.63;108847;1265;22514;-84
2022/07/21 09:14:40;;;;;;;4.60;3.30;;;;;;;40.68;20.73;97078.06;108772;1265;22574;-85
2022/07/21 09:17:13;;;;;;;3.90;3.50;;;;;;;39.41;21.22;97076.29;108367;1265;207223;-85
2022/07/21 09:19:48;;;;;;;5.30;3.70;;;;;;;38.07;22.14;97076.77;108691;1264;22539;-84
2022/07/21 09:22:21;;;;;;;5.80;3.60;;;;;;;37.29;23.61;97073.02;108773;1264;22548;-85
2022/07/21 09:24:53;;;;;;;4.70;3.60;;;;;;;37.26;24.07;97074.20;108750;1264;23787;-84
2022/07/21 09:27:26;;;;;;;6.60;3.70;;;;;;;37.15;24.86;97068.84;108617;1264;147520;-83
2022/07/21 09:30:00;;;;;;;6.80;3.80;;;;;;;37.03;25.04;97069.23;108804;1265;22519;-84
2022/07/21 09:32:34;;;;;;;6.90;4.50;;;;;;;36.93;25.51;97068.45;108849;1265;22623;-83
2022/07/21 09:35:13;;;;;;;5.70;4.30;;;;;;;36.77;25.85;97064.70;108614;1265;90240;-83
2022/07/21 09:37:48;;;;;;;4.10;3.50;;;;;;;36.53;25.66;97065.98;108770;1265;43817;-83
2022/07/21 09:40:20;;;;;;;5.20;4.00;;;;;;;35.90;25.84;97063.66;108846;1264;25961;-84
2022/07/21 09:42:53;;;;;;;7.30;4.00;;;;;;;35.69;26.52;97062.08;108752;1264;22577;-83
2022/07/21 09:45:25;;;;;;;5.10;4.00;;;;;;;35.45;26.44;97057.87;108611;1264;114676;-83
2022/07/21 09:47:56;;;;;;;4.30;3.90;;;;;;;35.01;26.72;97060.23;108855;1265;22549;-84
2022/07/21 09:50:27;;;;;;;5.80;3.90;;;;;;;34.89;27.76;97054.98;108738;1264;22552;-84
2022/07/21 09:52:59;;;;;;;5.90;3.50;;;;;;;34.63;28.12;97050.80;108588;1265;22638;-84
2022/07/21 09:55:31;;;;;;;5.90;3.40;;;;;;;34.60;27.93;97050.23;108636;1265;113475;-84
2022/07/21 09:58:03;;;;;;;6.60;3.70;;;;;;;34.50;27.18;97050.77;108837;1265;22660;-85
2022/07/21 10:00:36;;;;;;;5.30;3.20;;;;;;;34.38;27.23;97049.05;108916;1264;24346;-85
2022/07/21 10:03:08;;;;;;;6.80;4.00;;;;;;;34.31;26.81;97048.14;108880;1265;22526;-84
2022/07/21 10:05:40;;;;;;;5.70;3.60;;;;;;;33.97;27.19;97046.75;108615;1264;137000;-84
2022/07/21 10:08:13;;;;;;;5.10;3.90;;;;;;;33.95;27.55;97042.70;108815;1264;22559;-84
2022/07/21 10:10:45;;;;;;;5.00;3.90;;;;;;;34.10;28.15;97043.20;108777;1263;22552;-83
2022/07/21 10:13:17;;;;;;;5.10;3.70;;;;;;;34.12;27.83;97046.16;108745;1265;22542;-83
2022/07/21 10:15:50;;;;;;;5.50;3.60;;;;;;;33.94;28.28;97044.54;108322;1264;235700;-82
2022/07/21 10:18:23;;;;;;;6.20;3.80;;;;;;;33.98;28.38;97048.16;108809;1265;25402;-83
2022/07/21 10:21:05;;;;;;;7.40;3.90;;;;;;;33.94;28.83;97048.01;108853;1262;22529;-83
2022/07/21 10:23:43;;;;;;;5.60;3.90;;;;;;;34.03;29.75;97048.70;108880;1264;22565;-83
2022/07/21 10:26:16;;;;;;;6.50;4.40;;;;;;;34.19;29.59;97045.85;105661;1264;2153220;-83
2022/07/21 10:28:47;;;;;;;4.00;3.60;;;;;;;34.18;29.48;97047.84;108972;1265;22539;-85
2022/07/21 10:31:24;;;;;;;4.40;3.60;;;;;;;33.53;28.73;97042.79;108933;1265;22554;-80
2022/07/21 10:34:02;;;;;;;6.40;3.90;;;;;;;32.93;29.97;97041.05;108875;1265;23294;-80
2022/07/21 10:36:55;;;;;;;5.80;4.30;;;;;;;32.63;30.31;97038.48;108917;1264;103130;-80
2022/07/21 10:39:28;;;;;;;4.60;3.50;;;;;;;32.61;31.30;97043.45;108989;1265;22535;-80
2022/07/21 10:42:15;;;;;;;4.70;4.00;;;;;;;32.64;31.11;97041.11;109030;1265;22558;-80
2022/07/21 10:44:56;;;;;;;5.90;3.50;;;;;;;32.79;30.65;97042.96;108946;1265;23490;-81
2022/07/21 10:47:30;;;;;;;5.00;4.00;;;;;;;32.80;31.10;97043.11;108775;1265;97099;-81
2022/07/21 10:50:08;;;;;;;6.00;3.90;;;;;;;32.92;32.07;97042.56;110166;1263;22455;-81
2022/07/21 10:53:05;;;;;;;6.00;4.00;;;;;;;33.24;31.98;97042.46;108938;1265;22564;-80
2022/07/21 10:55:56;;;;;;;7.20;4.00;;;;;;;33.48;31.53;97038.34;108713;1265;108195;-80
2022/07/21 10:58:36;;;;;;;6.20;4.10;;;;;;;33.52;31.27;97035.84;108800;1263;22590;-80
2022/07/21 11:01:27;;;;;;;4.50;3.90;;;;;;;33.38;31.41;97040.32;108487;1265;419165;-80
2022/07/21 11:04:20;;;;;;;6.70;4.60;;;;;;;33.46;31.73;97040.65;108856;1265;22542;-80
2022/07/21 11:06:57;;;;;;;5.10;4.10;;;;;;;32.76;32.20;97042.45;108560;1265;91372;-81
2022/07/21 11:09:32;;;;;;;5.30;4.10;;;;;;;32.88;33.12;97044.11;108785;1265;22863;-81
2022/07/21 11:12:10;;;;;;;6.90;4.40;;;;;;;33.11;32.32;97041.98;108816;1265;22702;-80
2022/07/21 11:14:49;;;;;;;4.70;3.90;;;;;;;32.84;31.98;97042.36;108801;1265;22589;-80
2022/07/21 11:17:42;;;;;;;7.10;4.30;;;;;;;32.63;32.25;97040.20;108655;1265;100185;-81
2022/07/21 11:20:19;;;;;;;6.60;4.20;;;;;;;32.02;33.10;97039.59;108827;1264;25379;-81
2022/07/21 11:23:02;;;;;;;5.40;4.30;;;;;;;32.20;33.91;97037.10;108820;1265;24263;-80
2022/07/21 11:25:40;;;;;;;7.10;4.20;;;;;;;32.36;33.48;97027.61;107213;1262;1942602;-80
2022/07/21 11:28:22;;;;;;;5.00;4.20;;;;;;;32.24;33.27;97023.73;108816;1264;22549;-80
2022/07/21 11:31:11;;;;;;;7.10;4.60;;;;;;;32.29;33.72;97021.02;108789;1264;22548;-80
2022/07/21 11:33:47;;;;;;;7.00;4.20;;;;;;;32.49;33.54;97017.71;108822;1264;22523;-80
2022/07/21 11:36:37;;;;;;;6.60;4.60;;;;;;;32.64;33.93;97017.60;108649;1265;112852;-80
2022/07/21 11:39:14;;;;;;;5.90;4.60;;;;;;;32.58;33.12;97015.56;108877;1264;22531;-80
2022/07/21 11:41:51;;;;;;;6.00;4.10;;;;;;;32.53;33.31;97016.35;108825;1264;25458;-80
2022/07/21 11:44:31;;;;;;;5.70;4.10;;;;;;;32.53;33.47;97020.19;108847;1263;22678;-80
2022/07/21 11:47:13;;;;;;;6.00;4.40;;;;;;;31.97;32.79;97020.04;108621;1265;98619;-80
2022/07/21 11:49:45;;;;;;;5.60;4.50;;;;;;;31.57;34.16;97014.95;108841;1264;22549;-80
2022/07/21 11:52:26;;;;;;;5.80;4.30;;;;;;;31.66;34.35;97010.79;108759;1265;22527;-80
2022/07/21 11:55:20;;;;;;;5.30;4.10;;;;;;;31.82;34.03;97011.73;108622;1262;95037;-80
2022/07/21 11:58:00;;;;;;;5.20;4.20;;;;;;;31.53;34.17;97007.23;108828;1263;23074;-80
2022/07/21 12:00:32;;;;;;;5.50;4.30;;;;;;;31.47;34.04;97008.38;108861;1264;22661;-80
2022/07/21 12:03:12;;;;;;;6.80;4.70;;;;;;;31.55;34.87;97005.96;108869;1264;22579;-80
2022/07/21 12:05:56;;;;;;;7.30;4.30;;;;;;;31.90;34.98;97005.78;108598;1264;120434;-80